Time;durP1;ratioP1;P1;durP2;ratioP2;P2;SDS_P1;SDS_P2;PMS_P1;PMS_P2;Temp;Humidity;BMP_temperature;BMP_pressure;BME280_temperature;BME280_humidity;BME280_pressure;Samples;Min_cycle;Max_cycle;Signal;HPM_P1;HPM_P2
2023/10/09 00:01:24;;;;;;;13.82;7.47;;;15.40;99.90;;;;;;4110910;28;20054;-67
2023/10/09 00:03:27;;;;;;;11.93;7.47;;;15.40;99.90;;;;;;4111530;28;20046;-67
2023/10/09 00:05:40;;;;;;;13.68;8.15;;;15.40;99.90;;;;;;4113115;28;20553;-67
2023/10/09 00:07:40;;;;;;;15.35;7.93;;;15.40;99.90;;;;;;4101168;28;20063;-69
2023/10/09 00:09:47;;;;;;;14.93;8.88;;;15.40;99.90;;;;;;4106779;28;20046;-67
2023/10/09 00:11:48;;;;;;;15.15;8.77;;;15.40;99.90;;;;;;4094689;28;20142;-67
2023/10/09 00:13:48;;;;;;;12.68;7.85;;;15.40;99.90;;;;;;4097232;28;20039;-67
2023/10/09 00:15:53;;;;;;;12.68;8.05;;;15.40;99.90;;;;;;4112081;28;20039;-67
2023/10/09 00:17:56;;;;;;;14.38;8.18;;;15.40;99.90;;;;;;4113303;28;20098;-67
2023/10/09 00:19:59;;;;;;;14.93;8.65;;;15.40;99.90;;;;;;4113169;28;20035;-67
2023/10/09 00:22:25;;;;;;;14.02;8.48;;;15.40;99.90;;;;;;4095253;28;20028;-67
2023/10/09 00:24:26;;;;;;;13.38;7.93;;;15.40;99.90;;;;;;4117943;28;20098;-67
2023/10/09 00:26:28;;;;;;;15.30;8.02;;;15.40;99.90;;;;;;4114699;28;20585;-67
2023/10/09 00:28:29;;;;;;;13.25;8.00;;;15.40;99.90;;;;;;4084126;28;20127;-67
2023/10/09 00:30:30;;;;;;;14.95;8.30;;;15.40;99.90;;;;;;4112204;28;20436;-67
2023/10/09 00:32:32;;;;;;;13.48;7.90;;;15.50;99.90;;;;;;4097885;28;20086;-68
2023/10/09 00:34:39;;;;;;;15.68;9.10;;;15.40;99.90;;;;;;4100842;28;20529;-67
2023/10/09 00:36:50;;;;;;;15.55;8.88;;;15.40;99.90;;;;;;4104713;28;20374;-68
2023/10/09 00:38:51;;;;;;;13.40;8.55;;;15.40;99.90;;;;;;4111676;28;20091;-67
2023/10/09 00:41:10;;;;;;;15.77;8.02;;;15.40;99.90;;;;;;4112283;28;20153;-67
2023/10/09 00:43:13;;;;;;;14.18;8.18;;;15.40;99.90;;;;;;4108820;28;20035;-67
2023/10/09 00:45:27;;;;;;;;;;;15.50;99.90;;;;;;4109390;28;20119;-68
2023/10/09 00:47:34;;;;;;;12.48;7.30;;;15.50;99.90;;;;;;4108572;28;19968;-66
2023/10/09 00:49:34;;;;;;;11.43;7.35;;;15.50;99.90;;;;;;4111866;28;20059;-67
2023/10/09 00:51:38;;;;;;;13.57;8.18;;;15.50;99.90;;;;;;4109151;28;20039;-67
2023/10/09 00:53:39;;;;;;;13.00;7.68;;;15.50;99.90;;;;;;4112489;28;20531;-69
2023/10/09 00:57:59;;;;;;;16.65;8.43;;;15.50;99.90;;;;;;4112437;28;20039;-67
2023/10/09 01:00:00;;;;;;;16.60;9.57;;;15.50;99.90;;;;;;4113008;28;20077;-67
2023/10/09 01:02:04;;;;;;;22.05;10.02;;;15.40;99.90;;;;;;4109488;28;20121;-68
2023/10/09 01:04:17;;;;;;;14.80;8.77;;;15.40;99.90;;;;;;4109173;28;20501;-67
2023/10/09 01:06:21;;;;;;;14.10;9.05;;;15.40;99.90;;;;;;4071632;29;20036;-67
2023/10/09 01:08:26;;;;;;;16.17;8.73;;;15.50;99.90;;;;;;4090427;28;20063;-67
2023/10/09 01:10:34;;;;;;;14.68;8.43;;;15.40;99.90;;;;;;4103063;28;20441;-67
2023/10/09 01:12:42;;;;;;;15.48;8.30;;;15.40;99.90;;;;;;4107864;28;20031;-67
2023/10/09 01:14:52;;;;;;;14.75;7.93;;;15.40;99.90;;;;;;4108774;28;20093;-68
2023/10/09 01:16:54;;;;;;;12.63;7.80;;;15.40;99.90;;;;;;4108713;28;20062;-67
2023/10/09 01:18:58;;;;;;;14.25;8.20;;;15.40;99.90;;;;;;4115845;28;20031;-67
2023/10/09 01:20:58;;;;;;;12.05;7.57;;;15.40;99.90;;;;;;4109532;28;20034;-68
2023/10/09 01:23:02;;;;;;;14.52;6.72;;;15.40;99.90;;;;;;4107234;28;20050;-67
2023/10/09 01:25:05;;;;;;;11.40;7.28;;;15.40;99.90;;;;;;4112053;28;20035;-69
2023/10/09 01:27:12;;;;;;;14.38;7.35;;;15.40;99.90;;;;;;4107595;28;20527;-69
2023/10/09 01:29:21;;;;;;;12.77;7.50;;;15.50;99.90;;;;;;4114044;28;20055;-68
2023/10/09 01:31:22;;;;;;;16.38;8.77;;;15.40;99.90;;;;;;4102892;28;20121;-69
2023/10/09 01:33:24;;;;;;;12.70;7.68;;;15.50;99.90;;;;;;4110214;28;20038;-68
2023/10/09 01:35:26;;;;;;;14.82;8.35;;;15.40;99.90;;;;;;4103945;28;20710;-69
2023/10/09 01:37:29;;;;;;;10.70;6.90;;;15.40;99.90;;;;;;4114267;28;20502;-69
2023/10/09 01:39:30;;;;;;;11.85;6.72;;;15.40;99.90;;;;;;4102472;28;20126;-69
2023/10/09 01:41:34;;;;;;;13.15;7.93;;;15.40;99.90;;;;;;4112886;28;20042;-69
2023/10/09 01:43:35;;;;;;;14.05;7.43;;;15.40;99.90;;;;;;4112742;28;20031;-69
2023/10/09 01:45:46;;;;;;;17.88;7.70;;;15.40;99.90;;;;;;4108737;28;20098;-69
2023/10/09 01:47:56;;;;;;;12.60;7.80;;;15.40;99.90;;;;;;4112745;28;20035;-69
2023/10/09 01:49:57;;;;;;;16.02;7.75;;;15.40;99.90;;;;;;4105447;28;20154;-69
2023/10/09 01:52:01;;;;;;;14.20;6.95;;;15.40;99.90;;;;;;4104731;28;20037;-69
2023/10/09 01:54:03;;;;;;;11.90;6.97;;;15.40;99.90;;;;;;4085176;28;20043;-69
2023/10/09 01:56:15;;;;;;;11.85;6.88;;;15.40;99.90;;;;;;4094179;28;20035;-69
2023/10/09 02:00:29;;;;;;;13.95;7.38;;;15.40;99.90;;;;;;4109091;28;20441;-69
2023/10/09 02:02:35;;;;;;;12.65;7.40;;;15.40;99.90;;;;;;4112017;28;20050;-69
2023/10/09 02:04:35;;;;;;;12.57;7.22;;;15.40;99.90;;;;;;4115943;28;20034;-69
2023/10/09 02:06:37;;;;;;;12.10;6.82;;;15.40;99.90;;;;;;4109668;28;20444;-69
2023/10/09 02:08:38;;;;;;;14.73;7.32;;;15.40;99.90;;;;;;4111355;28;20037;-69
2023/10/09 02:10:39;;;;;;;12.35;7.35;;;15.40;99.90;;;;;;4099217;28;20032;-69
2023/10/09 02:12:40;;;;;;;9.90;6.28;;;15.40;99.90;;;;;;4107989;28;20045;-69
2023/10/09 02:14:41;;;;;;;11.60;6.55;;;15.40;99.90;;;;;;4121281;28;20039;-69
2023/10/09 02:16:42;;;;;;;15.07;7.68;;;15.40;99.90;;;;;;4092423;28;20028;-69
2023/10/09 02:18:59;;;;;;;15.65;8.30;;;15.40;99.90;;;;;;4111687;28;20027;-69
2023/10/09 02:23:00;;;;;;;12.85;6.65;;;15.40;99.90;;;;;;4108817;28;20715;-69
2023/10/09 02:25:05;;;;;;;11.40;6.68;;;15.40;99.90;;;;;;4109149;28;20107;-69
2023/10/09 02:27:06;;;;;;;11.95;6.47;;;15.40;99.90;;;;;;4107207;28;20555;-70
2023/10/09 02:31:13;;;;;;;11.18;6.55;;;15.50;99.90;;;;;;4115502;28;20031;-69
2023/10/09 02:33:32;;;;;;;10.45;6.43;;;15.50;99.90;;;;;;4103204;28;20114;-69
2023/10/09 02:35:42;;;;;;;12.25;7.40;;;15.50;99.90;;;;;;4098062;28;20118;-69
2023/10/09 02:37:45;;;;;;;11.93;7.65;;;15.50;99.90;;;;;;4110644;28;20404;-70
2023/10/09 02:39:48;;;;;;;13.82;7.65;;;15.50;99.90;;;;;;4097140;28;20374;-70
2023/10/09 02:42:19;;;;;;;11.18;7.18;;;15.50;99.90;;;;;;4109576;28;20030;-71
2023/10/09 02:44:24;;;;;;;12.85;7.00;;;15.50;99.90;;;;;;4098847;28;20039;-71
2023/10/09 02:46:31;;;;;;;11.23;6.75;;;15.50;99.90;;;;;;4107805;28;20035;-71
2023/10/09 02:48:36;;;;;;;12.75;6.55;;;15.50;99.90;;;;;;4108420;28;20043;-71
2023/10/09 02:50:38;;;;;;;12.13;6.60;;;15.50;99.90;;;;;;4108544;28;20042;-70
2023/10/09 02:52:42;;;;;;;12.02;6.65;;;15.50;99.90;;;;;;4109571;28;20115;-71
2023/10/09 02:54:47;;;;;;;10.15;6.47;;;15.50;99.90;;;;;;4110129;28;20054;-70
2023/10/09 02:57:06;;;;;;;11.02;6.70;;;15.60;99.90;;;;;;4102130;28;20039;-70
2023/10/09 02:59:06;;;;;;;11.60;6.45;;;15.60;99.90;;;;;;4105657;28;20566;-71
2023/10/09 03:01:13;;;;;;;11.65;7.03;;;15.60;99.90;;;;;;4107959;28;20058;-72
2023/10/09 03:03:18;;;;;;;11.00;6.75;;;15.60;99.90;;;;;;4115046;28;20038;-71
2023/10/09 03:05:20;;;;;;;11.93;6.22;;;15.60;99.90;;;;;;4089201;28;20031;-72
2023/10/09 03:07:23;;;;;;;10.60;6.43;;;15.60;99.90;;;;;;4111066;28;20038;-71
2023/10/09 03:09:27;;;;;;;10.90;7.07;;;15.60;99.90;;;;;;4094585;28;20035;-71
2023/10/09 03:11:28;;;;;;;13.07;6.90;;;15.60;99.90;;;;;;4102888;28;20039;-71
2023/10/09 03:13:31;;;;;;;12.60;7.15;;;15.60;99.90;;;;;;4121641;28;20041;-71
2023/10/09 03:15:35;;;;;;;12.93;7.03;;;15.60;99.90;;;;;;4098849;28;20504;-72
2023/10/09 03:17:36;;;;;;;11.20;6.82;;;15.60;99.90;;;;;;4114131;28;20054;-71
2023/10/09 03:19:37;;;;;;;11.18;7.18;;;15.60;99.90;;;;;;4110844;28;20034;-71
2023/10/09 03:21:38;;;;;;;11.23;6.75;;;15.70;99.90;;;;;;4106581;28;20047;-71
2023/10/09 03:23:38;;;;;;;9.98;6.68;;;15.70;99.90;;;;;;4122555;28;20460;-70
2023/10/09 03:25:39;;;;;;;11.38;6.68;;;15.70;99.90;;;;;;4100781;28;20042;-69
2023/10/09 03:27:44;;;;;;;11.65;6.95;;;15.70;99.90;;;;;;4107831;28;20031;-68
2023/10/09 03:29:53;;;;;;;12.77;7.25;;;15.70;99.90;;;;;;4118481;28;20035;-67
2023/10/09 03:31:56;;;;;;;12.05;6.57;;;15.80;99.90;;;;;;4108952;28;20159;-67
2023/10/09 03:33:56;;;;;;;9.52;6.22;;;15.80;99.90;;;;;;4110749;28;20031;-68
2023/10/09 03:35:57;;;;;;;10.77;6.18;;;15.80;99.90;;;;;;4110270;28;20377;-71
2023/10/09 03:38:11;;;;;;;10.93;6.82;;;15.80;99.90;;;;;;4110977;28;20058;-71
2023/10/09 03:40:17;;;;;;;10.55;6.45;;;15.80;99.90;;;;;;4104589;28;20101;-71
2023/10/09 03:42:22;;;;;;;12.95;7.07;;;15.80;99.90;;;;;;4112024;28;20086;-71
2023/10/09 03:44:23;;;;;;;9.35;5.85;;;15.80;99.90;;;;;;4104881;28;20034;-71
2023/10/09 03:46:33;;;;;;;12.05;6.97;;;15.80;99.90;;;;;;4077585;28;20482;-66
2023/10/09 03:48:36;;;;;;;11.68;6.68;;;15.80;99.90;;;;;;4102781;28;20034;-69
2023/10/09 03:50:37;;;;;;;11.23;6.03;;;15.80;99.90;;;;;;4100483;28;20031;-67
2023/10/09 03:52:40;;;;;;;10.13;6.05;;;15.80;99.90;;;;;;4097982;28;20102;-66
2023/10/09 03:54:44;;;;;;;13.00;6.70;;;15.80;99.90;;;;;;4104275;28;20069;-68
2023/10/09 03:56:44;;;;;;;9.63;6.20;;;15.80;99.90;;;;;;4104310;28;20113;-67
2023/10/09 03:58:47;;;;;;;12.73;6.47;;;15.80;99.90;;;;;;4104699;28;20034;-66
2023/10/09 04:00:49;;;;;;;11.43;6.70;;;15.90;99.90;;;;;;4106532;28;20124;-67
2023/10/09 04:02:49;;;;;;;12.07;6.72;;;15.90;99.90;;;;;;4109422;28;20041;-67
2023/10/09 04:04:50;;;;;;;10.75;6.50;;;15.90;99.90;;;;;;4093233;28;20062;-66
2023/10/09 04:06:51;;;;;;;11.52;6.03;;;15.90;99.90;;;;;;4101789;28;20035;-67
2023/10/09 04:08:52;;;;;;;10.82;6.30;;;15.90;99.90;;;;;;4112932;28;20708;-66
2023/10/09 04:10:52;;;;;;;10.48;6.40;;;15.90;99.90;;;;;;4113070;28;20035;-66
2023/10/09 04:12:53;;;;;;;11.10;6.18;;;15.90;99.90;;;;;;4113379;28;21479;-66
2023/10/09 04:15:05;;;;;;;10.93;6.68;;;15.90;99.90;;;;;;4112989;28;20043;-66
2023/10/09 04:19:25;;;;;;;13.55;7.15;;;16.00;99.90;;;;;;4114084;28;20090;-66
2023/10/09 04:21:36;;;;;;;10.68;6.07;;;16.00;99.90;;;;;;4097113;28;20040;-66
2023/10/09 04:23:59;;;;;;;15.55;7.07;;;16.00;99.90;;;;;;4116343;28;20493;-66
2023/10/09 04:25:59;;;;;;;12.68;6.55;;;16.00;99.90;;;;;;4117397;28;20458;-66
2023/10/09 04:28:09;;;;;;;;;;;16.00;99.90;;;;;;4086195;28;20039;-66
2023/10/09 04:30:15;;;;;;;11.15;6.43;;;16.00;99.90;;;;;;4112410;28;19911;-67
2023/10/09 04:32:16;;;;;;;15.52;6.80;;;16.00;99.90;;;;;;4114232;28;20097;-67
2023/10/09 04:34:23;;;;;;;11.88;7.45;;;16.00;99.90;;;;;;4114638;28;20058;-66
2023/10/09 04:36:28;;;;;;;14.82;7.82;;;16.00;99.90;;;;;;4122643;28;20061;-66
2023/10/09 04:38:34;;;;;;;11.48;6.88;;;16.00;99.90;;;;;;4107876;28;20576;-66
2023/10/09 04:40:41;;;;;;;11.38;7.10;;;16.10;99.90;;;;;;4109941;28;20038;-67
2023/10/09 04:42:57;;;;;;;14.05;7.53;;;16.10;99.90;;;;;;4110517;28;20031;-68
2023/10/09 04:51:55;;;;;;;13.80;7.38;;;16.10;99.90;;;;;;4073864;28;20050;-69
2023/10/09 04:54:33;;;;;;;11.90;7.03;;;16.10;99.90;;;;;;4098405;28;20047;-69
2023/10/09 04:56:17;;;;;;;16.67;6.95;;;16.10;99.90;;;;;;4100615;28;20062;-67
2023/10/09 04:58:23;;;;;;;11.43;7.30;;;16.20;99.90;;;;;;4110098;28;20039;-67
2023/10/09 05:02:36;;;;;;;12.63;6.65;;;16.20;99.90;;;;;;4109616;28;20026;-67
2023/10/09 05:06:55;;;;;;;14.10;7.85;;;16.20;99.90;;;;;;4099055;28;20163;-67
2023/10/09 05:08:55;;;;;;;12.05;6.40;;;16.20;99.90;;;;;;4109782;28;20039;-67
2023/10/09 05:13:06;;;;;;;12.88;6.57;;;16.30;99.90;;;;;;4112010;28;20027;-67
2023/10/09 05:15:08;;;;;;;14.77;6.75;;;16.20;99.90;;;;;;4114025;28;20403;-68
2023/10/09 05:17:15;;;;;;;12.20;6.97;;;16.30;99.90;;;;;;4109203;28;20077;-67
2023/10/09 05:21:44;;;;;;;10.85;6.40;;;16.30;99.90;;;;;;4109113;28;20406;-68
2023/10/09 05:23:48;;;;;;;13.35;6.93;;;16.30;99.90;;;;;;4111535;28;20034;-68
2023/10/09 05:25:58;;;;;;;10.52;6.38;;;16.30;99.90;;;;;;4097474;28;20089;-68
2023/10/09 05:28:24;;;;;;;12.70;6.63;;;16.30;99.90;;;;;;4103868;28;20122;-67
2023/10/09 05:30:26;;;;;;;12.25;6.13;;;16.30;99.90;;;;;;4106640;28;20098;-67
2023/10/09 05:32:35;;;;;;;12.75;6.13;;;16.30;99.90;;;;;;4107458;28;20029;-67
2023/10/09 05:37:10;;;;;;;10.27;5.88;;;16.30;99.90;;;;;;4106922;28;20216;-67
2023/10/09 05:39:58;;;;;;;12.55;6.75;;;16.30;99.90;;;;;;4106666;28;20054;-67
2023/10/09 05:41:51;;;;;;;13.50;6.50;;;16.30;99.90;;;;;;4100556;28;20101;-67
2023/10/09 05:46:15;;;;;;;12.90;7.00;;;16.30;99.90;;;;;;4093007;28;20046;-67
2023/10/09 05:55:19;;;;;;;12.52;6.35;;;16.40;99.90;;;;;;4115315;28;20576;-69
2023/10/09 06:04:15;;;;;;;10.13;6.10;;;16.40;99.90;;;;;;4107991;28;20807;-72
2023/10/09 06:06:32;;;;;;;9.07;5.65;;;16.40;99.90;;;;;;4107474;28;20165;-71
2023/10/09 06:10:42;;;;;;;8.15;5.10;;;16.50;99.90;;;;;;4107640;28;20082;-71
2023/10/09 06:14:49;;;;;;;9.98;5.57;;;16.50;99.90;;;;;;4111423;28;20086;-71
2023/10/09 06:19:11;;;;;;;12.50;6.68;;;16.50;99.90;;;;;;4107954;28;20042;-68
2023/10/09 06:24:09;;;;;;;14.38;6.50;;;16.50;99.90;;;;;;4047270;29;20093;-70
2023/10/09 06:26:23;;;;;;;9.68;5.72;;;16.50;99.90;;;;;;4106987;28;20054;-71
2023/10/09 06:28:33;;;;;;;11.70;6.43;;;16.60;99.90;;;;;;4110262;28;20161;-70
2023/10/09 06:30:35;;;;;;;9.05;5.43;;;16.50;99.90;;;;;;4106365;28;20213;-69
2023/10/09 06:32:37;;;;;;;11.23;6.65;;;16.50;99.90;;;;;;4110319;28;20039;-71
2023/10/09 06:34:44;;;;;;;16.35;7.53;;;16.60;99.90;;;;;;4113770;28;20054;-71
2023/10/09 06:36:52;;;;;;;11.55;7.10;;;16.60;99.90;;;;;;4115830;28;20408;-71
2023/10/09 06:39:50;;;;;;;15.57;7.47;;;16.60;99.90;;;;;;4104423;28;20043;-71
2023/10/09 06:43:36;;;;;;;14.52;7.80;;;16.60;99.90;;;;;;4122165;28;20042;-71
2023/10/09 06:45:45;;;;;;;12.73;7.03;;;16.60;99.90;;;;;;4103323;28;20105;-71
2023/10/09 06:48:07;;;;;;;10.85;7.32;;;16.60;99.90;;;;;;4111783;28;20702;-70
2023/10/09 06:52:57;;;;;;;10.05;5.85;;;16.60;99.90;;;;;;4101635;28;20039;-71
2023/10/09 06:54:50;;;;;;;12.02;6.72;;;16.60;99.90;;;;;;4086846;28;20110;-71
2023/10/09 06:58:54;;;;;;;11.50;6.85;;;16.60;99.90;;;;;;4110471;28;20110;-70
2023/10/09 07:03:10;;;;;;;12.57;7.28;;;16.70;99.90;;;;;;4110479;28;20125;-71
2023/10/09 07:05:17;;;;;;;12.48;7.22;;;16.70;99.90;;;;;;4107660;28;20031;-69
2023/10/09 07:07:20;;;;;;;13.80;7.15;;;16.70;99.90;;;;;;4112940;28;20039;-67
2023/10/09 07:09:21;;;;;;;10.07;6.80;;;16.70;99.90;;;;;;4088960;28;20047;-67
2023/10/09 07:11:56;;;;;;;12.57;7.25;;;16.70;99.90;;;;;;4091832;28;20043;-67
2023/10/09 07:13:44;;;;;;;13.10;7.32;;;16.70;99.90;;;;;;4092373;28;20126;-67
2023/10/09 07:18:23;;;;;;;12.60;7.25;;;16.80;99.90;;;;;;4106299;28;20568;-68
2023/10/09 07:20:39;;;;;;;15.20;7.75;;;16.80;99.90;;;;;;4115399;28;20038;-68
2023/10/09 07:23:14;;;;;;;11.98;6.70;;;16.80;99.90;;;;;;4090374;28;20487;-68
2023/10/09 07:25:27;;;;;;;12.15;7.13;;;16.80;99.90;;;;;;4100014;28;20526;-69
2023/10/09 07:27:48;;;;;;;14.30;7.65;;;16.80;99.90;;;;;;4100439;28;20113;-69
2023/10/09 07:29:49;;;;;;;15.05;7.72;;;16.80;99.90;;;;;;4079985;28;20681;-69
2023/10/09 07:31:57;;;;;;;12.88;7.75;;;16.80;99.90;;;;;;4108489;28;20060;-69
2023/10/09 07:33:57;;;;;;;12.68;7.35;;;16.80;99.90;;;;;;4114778;28;20493;-69
2023/10/09 07:36:05;;;;;;;14.60;7.95;;;16.80;99.90;;;;;;4103809;28;20041;-69
2023/10/09 07:38:11;;;;;;;16.77;8.20;;;16.90;99.90;;;;;;4108566;28;20037;-69
2023/10/09 07:40:14;;;;;;;11.18;6.97;;;16.90;99.90;;;;;;4095937;28;20036;-69
2023/10/09 07:42:19;;;;;;;14.57;8.10;;;16.90;99.90;;;;;;4086825;28;20034;-69
2023/10/09 07:44:19;;;;;;;12.13;7.10;;;16.90;99.90;;;;;;4106399;28;20035;-69
2023/10/09 07:46:33;;;;;;;13.93;8.13;;;16.90;99.90;;;;;;4118659;28;20035;-69
2023/10/09 07:48:48;;;;;;;18.27;8.80;;;16.90;99.90;;;;;;4109102;28;20504;-69
2023/10/09 07:50:49;;;;;;;11.70;6.97;;;16.90;99.90;;;;;;4112368;28;20034;-69
2023/10/09 07:52:49;;;;;;;13.00;8.10;;;16.90;99.90;;;;;;4112804;28;20451;-69
2023/10/09 07:54:52;;;;;;;14.38;7.65;;;16.90;99.90;;;;;;4115346;28;20045;-69
2023/10/09 07:56:53;;;;;;;14.77;8.05;;;16.90;99.90;;;;;;4110885;28;20098;-69
2023/10/09 07:59:00;;;;;;;15.65;7.43;;;16.90;99.90;;;;;;4111465;28;20183;-69
2023/10/09 08:01:07;;;;;;;12.23;7.05;;;16.90;99.90;;;;;;4113934;28;20125;-69
2023/10/09 08:03:23;;;;;;;13.77;7.57;;;16.90;99.90;;;;;;4115100;28;20034;-68
2023/10/09 08:05:33;;;;;;;12.48;6.88;;;17.00;99.90;;;;;;4113719;28;20198;-68
2023/10/09 08:07:37;;;;;;;14.77;7.80;;;17.00;99.90;;;;;;4103621;28;20035;-68
2023/10/09 08:09:47;;;;;;;20.58;8.18;;;17.00;99.90;;;;;;4101694;28;20072;-68
2023/10/09 08:12:13;;;;;;;14.68;7.50;;;17.10;99.90;;;;;;4120833;28;20042;-68
2023/10/09 08:16:36;;;;;;;14.63;7.28;;;17.10;99.90;;;;;;4104744;28;20046;-68
2023/10/09 08:18:44;;;;;;;13.73;7.45;;;17.10;99.90;;;;;;4111804;28;20106;-68
2023/10/09 08:22:58;;;;;;;14.45;7.47;;;17.20;99.90;;;;;;4109255;28;20054;-68
2023/10/09 08:24:59;;;;;;;17.80;9.02;;;17.20;99.90;;;;;;4113158;28;20032;-69
2023/10/09 08:29:20;;;;;;;11.32;7.30;;;17.30;99.90;;;;;;4113772;28;20031;-67
2023/10/09 08:31:45;;;;;;;16.08;8.32;;;17.30;99.90;;;;;;4092044;28;20101;-67
2023/10/09 08:34:01;;;;;;;14.63;8.32;;;17.20;99.90;;;;;;4113332;28;20047;-67
2023/10/09 08:36:04;;;;;;;13.75;8.27;;;17.20;99.90;;;;;;4109840;28;20070;-67
2023/10/09 08:38:07;;;;;;;13.23;8.35;;;17.30;99.90;;;;;;4108611;28;20062;-67
2023/10/09 08:40:10;;;;;;;18.67;8.23;;;17.30;99.90;;;;;;4095563;28;20517;-67
2023/10/09 08:42:10;;;;;;;15.20;8.57;;;17.30;99.90;;;;;;4120803;28;20034;-67
2023/10/09 08:44:14;;;;;;;15.68;8.45;;;17.30;99.90;;;;;;4112438;28;20030;-67
2023/10/09 08:46:18;;;;;;;13.23;8.35;;;17.30;99.90;;;;;;4109867;28;20106;-67
2023/10/09 08:48:21;;;;;;;16.67;8.30;;;17.30;99.90;;;;;;4112163;28;20114;-67
2023/10/09 08:50:22;;;;;;;15.48;8.75;;;17.30;99.90;;;;;;4107321;28;21182;-67
2023/10/09 08:52:24;;;;;;;19.00;9.07;;;17.30;99.90;;;;;;4113019;28;20031;-67
2023/10/09 08:54:25;;;;;;;14.27;7.38;;;17.30;99.90;;;;;;4111278;28;20484;-67
2023/10/09 08:56:26;;;;;;;14.18;8.00;;;17.40;99.90;;;;;;4099378;28;20039;-67
2023/10/09 08:58:32;;;;;;;14.10;9.00;;;17.40;99.90;;;;;;4108881;28;21412;-67
2023/10/09 09:00:33;;;;;;;19.08;8.63;;;17.40;99.90;;;;;;4102976;28;20576;-67
2023/10/09 09:03:25;;;;;;;15.43;9.25;;;17.40;99.90;;;;;;4169108;27;20799;-64
2023/10/09 09:05:28;;;;;;;30.88;10.27;;;17.50;99.90;;;;;;4175948;28;20345;-62
2023/10/09 09:07:32;;;;;;;16.90;8.63;;;17.50;99.90;;;;;;4173856;28;20037;-63
2023/10/09 09:09:34;;;;;;;14.23;8.18;;;17.60;99.90;;;;;;4174182;28;20082;-64
2023/10/09 09:11:48;;;;;;;13.30;8.17;;;17.60;99.90;;;;;;4174596;28;20428;-63
2023/10/09 09:14:22;;;;;;;15.57;7.55;;;17.70;99.90;;;;;;4169977;28;20267;-64
2023/10/09 09:16:29;;;;;;;16.25;8.48;;;17.70;99.90;;;;;;4197622;28;20041;-63
2023/10/09 09:18:37;;;;;;;16.30;8.88;;;17.80;99.90;;;;;;4197470;28;20447;-64
2023/10/09 09:20:40;;;;;;;20.05;8.07;;;17.80;99.90;;;;;;4187833;28;20043;-63
2023/10/09 09:22:56;;;;;;;14.77;8.30;;;17.90;99.90;;;;;;4186417;28;20091;-60
2023/10/09 09:25:09;;;;;;;14.90;8.07;;;18.00;99.90;;;;;;4185819;28;20025;-60
2023/10/09 09:27:12;;;;;;;13.18;7.22;;;18.00;99.90;;;;;;4188697;28;20537;-61
2023/10/09 09:29:17;;;;;;;15.23;7.82;;;18.10;99.90;;;;;;4184464;28;20571;-61
2023/10/09 09:31:22;;;;;;;15.63;8.18;;;18.10;99.90;;;;;;4189039;28;20669;-60
2023/10/09 09:33:42;;;;;;;15.80;8.73;;;18.10;99.90;;;;;;4190207;28;20740;-60
2023/10/09 09:36:03;;;;;;;13.40;7.53;;;18.10;99.90;;;;;;4188109;28;20028;-61
2023/10/09 09:38:06;;;;;;;16.60;9.43;;;18.10;99.90;;;;;;4187610;28;20036;-61
2023/10/09 09:40:28;;;;;;;;;;;18.20;99.90;;;;;;4187900;28;20037;-61
2023/10/09 09:42:31;;;;;;;14.30;8.43;;;18.20;99.90;;;;;;4181045;28;20384;-60
2023/10/09 09:44:33;;;;;;;19.38;8.45;;;18.20;99.90;;;;;;4187344;28;20119;-61
2023/10/09 09:46:34;;;;;;;13.98;7.32;;;18.20;99.90;;;;;;4184822;28;20032;-61
2023/10/09 09:48:44;;;;;;;15.73;8.63;;;18.30;99.90;;;;;;4188411;27;20037;-61
2023/10/09 09:50:46;;;;;;;13.10;7.22;;;18.30;99.90;;;;;;4188026;28;20024;-61
2023/10/09 09:52:49;;;;;;;12.50;6.50;;;18.30;99.90;;;;;;4190118;28;20043;-61
2023/10/09 09:54:51;;;;;;;12.70;7.38;;;18.40;99.90;;;;;;4188349;28;20075;-61
2023/10/09 09:56:54;;;;;;;22.83;8.60;;;18.40;99.90;;;;;;4189863;27;20489;-61
2023/10/09 09:58:59;;;;;;;12.02;7.65;;;18.40;99.90;;;;;;4188155;28;20092;-61
2023/10/09 10:01:15;;;;;;;11.73;6.78;;;18.40;99.90;;;;;;4187264;28;20120;-58
2023/10/09 10:03:27;;;;;;;12.20;7.43;;;18.50;99.90;;;;;;4184855;28;20059;-59
2023/10/09 10:05:29;;;;;;;36.40;9.93;;;18.50;99.90;;;;;;4187562;28;20493;-58
2023/10/09 10:07:39;;;;;;;22.65;8.68;;;18.60;99.90;;;;;;4190035;27;20141;-58
2023/10/09 10:09:41;;;;;;;29.98;9.25;;;18.60;99.90;;;;;;4187447;28;20040;-58
2023/10/09 10:11:46;;;;;;;27.75;9.98;;;18.70;99.90;;;;;;4187562;27;20492;-61
2023/10/09 10:13:48;;;;;;;30.48;10.55;;;18.70;99.90;;;;;;4184638;28;20129;-58
2023/10/09 10:16:11;;;;;;;23.58;10.52;;;18.70;99.90;;;;;;4176980;28;20111;-58
2023/10/09 10:18:18;;;;;;;20.42;9.57;;;18.80;99.90;;;;;;4174513;28;20428;-59
2023/10/09 10:22:27;;;;;;;44.45;10.70;;;18.90;99.90;;;;;;4177960;28;20048;-58
2023/10/09 10:26:53;;;;;;;23.23;8.75;;;18.90;99.90;;;;;;4175817;28;20382;-61
2023/10/09 10:29:22;;;;;;;17.92;9.38;;;19.00;99.90;;;;;;4178197;28;20044;-60
2023/10/09 10:31:51;;;;;;;16.55;9.52;;;19.00;99.90;;;;;;4176527;28;20037;-63
2023/10/09 10:33:55;;;;;;;15.95;8.88;;;19.00;99.90;;;;;;4177628;28;20064;-63
2023/10/09 10:35:56;;;;;;;16.52;9.80;;;19.10;99.90;;;;;;4176807;28;20060;-64
2023/10/09 10:40:37;;;;;;;14.63;8.35;;;19.10;99.90;;;;;;4176882;28;20033;-64
2023/10/09 10:42:35;;;;;;;23.63;10.15;;;19.10;99.90;;;;;;4176126;28;20039;-63
2023/10/09 10:44:41;;;;;;;16.27;8.80;;;19.10;99.90;;;;;;4177809;28;20053;-63
2023/10/09 10:46:44;;;;;;;17.13;10.02;;;19.20;99.90;;;;;;4173850;28;20033;-63
2023/10/09 10:48:49;;;;;;;;;;;19.20;99.90;;;;;;4177544;28;20094;-63
2023/10/09 10:50:57;;;;;;;17.55;8.57;;;19.30;99.90;;;;;;4176562;28;19909;-63
2023/10/09 10:53:14;;;;;;;12.73;7.88;;;19.30;99.90;;;;;;4179242;28;20041;-63
2023/10/09 10:58:00;;;;;;;16.17;9.25;;;19.40;99.90;;;;;;4174523;28;20033;-63
2023/10/09 11:00:13;;;;;;;13.38;8.18;;;19.40;99.90;;;;;;4176681;28;20393;-63
2023/10/09 11:02:22;;;;;;;13.02;7.97;;;19.50;99.90;;;;;;4174728;28;20041;-63
2023/10/09 11:04:24;;;;;;;12.88;7.25;;;19.50;99.90;;;;;;4182111;28;20433;-63
2023/10/09 11:06:36;;;;;;;15.18;8.60;;;19.60;99.90;;;;;;4175349;28;20041;-61
2023/10/09 11:08:37;;;;;;;16.07;8.97;;;19.60;99.90;;;;;;4176087;28;20091;-60
2023/10/09 11:10:49;;;;;;;11.90;7.88;;;19.60;99.90;;;;;;4176650;28;20033;-63
2023/10/09 11:15:06;;;;;;;32.22;10.70;;;19.80;99.90;;;;;;4175416;28;20063;-62
2023/10/09 11:17:23;;;;;;;31.80;10.52;;;19.80;99.90;;;;;;4174428;28;20032;-61
2023/10/09 11:21:31;;;;;;;26.42;9.45;;;19.80;99.90;;;;;;4176317;28;20500;-60
2023/10/09 11:25:39;;;;;;;22.85;9.60;;;19.80;99.90;;;;;;4175286;28;20033;-58
2023/10/09 11:27:50;;;;;;;23.23;10.52;;;19.90;99.90;;;;;;4175147;28;20025;-60
2023/10/09 11:31:59;;;;;;;39.65;12.68;;;20.00;99.90;;;;;;4191098;28;20396;-59
2023/10/09 11:34:01;;;;;;;32.75;12.15;;;20.00;99.90;;;;;;4177128;28;20037;-58
2023/10/09 11:36:07;;;;;;;51.10;13.55;;;20.00;99.90;;;;;;4176089;28;20037;-59
2023/10/09 11:38:20;;;;;;;44.03;12.75;;;20.00;99.90;;;;;;4177211;28;20033;-59
2023/10/09 11:42:57;;;;;;;28.85;12.23;;;20.20;99.90;;;;;;4174360;28;20124;-59
2023/10/09 11:45:04;;;;;;;24.23;10.32;;;20.20;99.90;;;;;;4175612;28;20099;-58
2023/10/09 11:51:21;;;;;;;23.02;10.32;;;20.30;99.90;;;;;;4175528;28;20057;-59
2023/10/09 11:55:25;;;;;;;18.98;9.52;;;20.30;99.90;;;;;;4175478;28;20043;-61
2023/10/09 11:57:33;;;;;;;20.20;9.95;;;20.30;99.90;;;;;;4178535;28;20056;-61
2023/10/09 11:59:37;;;;;;;14.82;8.10;;;20.30;99.90;;;;;;4175372;28;20090;-61
2023/10/09 12:01:42;;;;;;;18.73;9.20;;;20.40;99.90;;;;;;4175528;28;20057;-58
2023/10/09 12:03:44;;;;;;;12.93;8.07;;;20.40;99.90;;;;;;4175851;28;20033;-60
2023/10/09 12:05:44;;;;;;;14.70;9.15;;;20.40;99.90;;;;;;4179689;28;20496;-59
2023/10/09 12:07:46;;;;;;;17.30;10.40;;;20.40;99.90;;;;;;4174740;28;20037;-59
2023/10/09 12:09:48;;;;;;;17.30;9.60;;;20.40;99.90;;;;;;4173712;28;20068;-59
2023/10/09 12:11:52;;;;;;;17.25;8.85;;;20.50;99.90;;;;;;4172761;28;20037;-58
2023/10/09 12:13:56;;;;;;;20.30;10.18;;;20.50;99.90;;;;;;4176196;28;20033;-59
2023/10/09 12:15:57;;;;;;;14.73;7.90;;;20.50;99.90;;;;;;4173925;28;20116;-58
2023/10/09 12:17:58;;;;;;;15.98;9.82;;;20.50;99.90;;;;;;4175107;28;20090;-57
2023/10/09 12:19:58;;;;;;;16.15;9.18;;;20.50;99.90;;;;;;4176681;28;20694;-57
2023/10/09 12:22:00;;;;;;;16.35;9.60;;;20.50;99.90;;;;;;4174965;28;20059;-57
2023/10/09 12:24:01;;;;;;;17.83;10.27;;;20.50;99.90;;;;;;4174811;28;20033;-58
2023/10/09 12:26:04;;;;;;;17.40;9.73;;;20.50;99.90;;;;;;4178940;28;20120;-58
2023/10/09 12:28:06;;;;;;;13.77;8.27;;;20.50;99.90;;;;;;4174633;28;20156;-57
2023/10/09 12:30:07;;;;;;;19.70;9.18;;;20.50;99.90;;;;;;4173049;28;20032;-58